05CO weather

Rancho De Aereo Airport
Mead, Colorado, United States

Public forecast

Using degrees Fahrenheit for public forecast. Weather courtesy of forecast.io.

Closest aviation weather report (METAR) to Rancho De Aereo Airport

Closest report is Vance Brand Airport, 8.8 nm (16.2 km) WSW. Retrieved 2020/02/18 06:35 UTC (0 seconds ago):

KLMO 180635Z AUTO 20004KT 7SM SCT033 SCT039 SCT055 M03/M05 A3017 RMK AO2 T10301053

Closest aviation forecast (TAF) to Rancho De Aereo Airport

Closest forecast is Rocky Mountain Metropolitan Airport, 19.4 nm (35.9 km) SSW. Retrieved 2020/02/18 06:36 UTC (0 seconds ago):

TAF KBJC 180535Z 1806/1906 14005KT P6SM BKN020 OVC030 TEMPO 1806/1809 3SM -SN BR BKN008 OVC016 FM181000 20004KT P6SM SCT015 BKN060 FM181700 11006KT P6SM SCT060 FM190300 VRB05KT P6SM SCT020 BKN040